Time;durP1;ratioP1;P1;durP2;ratioP2;P2;SDS_P1;SDS_P2;PMS_P1;PMS_P2;Temp;Humidity;BMP_temperature;BMP_pressure;BME280_temperature;BME280_humidity;BME280_pressure;Samples;Min_cycle;Max_cycle;Signal;HPM_P1;HPM_P2
2021/09/28 00:00:23;;;;;;;8.02;2.30;;;12.40;95.50;;;;;;4996849;28;20038;-79
2021/09/28 00:02:49;;;;;;;7.50;3.28;;;12.30;95.50;;;;;;5014367;28;20078;-78
2021/09/28 00:05:14;;;;;;;11.57;3.00;;;12.40;95.50;;;;;;5029268;28;20432;-78
2021/09/28 00:07:40;;;;;;;7.80;2.33;;;12.30;95.50;;;;;;5013146;28;20029;-79
2021/09/28 00:10:06;;;;;;;8.10;2.35;;;12.30;95.50;;;;;;5013140;28;20080;-79
2021/09/28 00:12:31;;;;;;;9.88;2.42;;;12.30;95.50;;;;;;5012967;28;20025;-78
2021/09/28 00:14:57;;;;;;;10.98;2.20;;;12.30;95.50;;;;;;5013106;28;20095;-79
2021/09/28 00:17:23;;;;;;;8.50;2.63;;;12.30;95.60;;;;;;5014359;28;20100;-79
2021/09/28 00:19:48;;;;;;;12.57;2.67;;;12.20;95.60;;;;;;5012784;28;20064;-79
2021/09/28 00:22:14;;;;;;;10.82;2.83;;;12.20;95.60;;;;;;5012907;28;20034;-79
2021/09/28 00:24:40;;;;;;;8.90;2.83;;;12.20;95.60;;;;;;5012820;28;20037;-78
2021/09/28 00:27:06;;;;;;;9.63;2.40;;;12.20;95.60;;;;;;5014014;28;20026;-79
2021/09/28 00:29:31;;;;;;;13.38;2.83;;;12.10;95.60;;;;;;4996358;28;20065;-79
2021/09/28 00:31:57;;;;;;;12.40;2.70;;;12.10;95.70;;;;;;5029052;28;20061;-79
2021/09/28 00:34:23;;;;;;;11.23;2.67;;;12.10;95.70;;;;;;5013953;28;20041;-79
2021/09/28 00:36:48;;;;;;;9.02;2.67;;;12.10;95.70;;;;;;5011617;28;20040;-79
2021/09/28 00:39:14;;;;;;;5.75;2.30;;;12.10;95.80;;;;;;5012831;28;20035;-79
2021/09/28 00:41:40;;;;;;;11.65;2.80;;;12.00;95.80;;;;;;5012475;28;20029;-79
2021/09/28 00:44:06;;;;;;;11.30;3.63;;;12.10;95.80;;;;;;5021013;28;20030;-79
2021/09/28 00:46:32;;;;;;;7.18;2.30;;;12.00;95.80;;;;;;5003721;28;20390;-79
2021/09/28 00:48:57;;;;;;;8.85;2.63;;;11.90;95.80;;;;;;5008702;28;20061;-79
2021/09/28 00:51:23;;;;;;;12.25;2.53;;;12.00;95.80;;;;;;5009216;28;20066;-79
2021/09/28 00:53:52;;;;;;;9.25;2.65;;;12.00;95.80;;;;;;5001499;28;20033;-79
2021/09/28 00:56:19;;;;;;;11.13;2.42;;;11.90;95.80;;;;;;5012360;28;20030;-79
2021/09/28 00:58:45;;;;;;;11.32;2.30;;;11.90;95.80;;;;;;5013587;28;20030;-79
2021/09/28 01:01:13;;;;;;;7.63;2.28;;;12.00;95.80;;;;;;5012369;28;20113;-79
2021/09/28 01:03:39;;;;;;;16.80;2.78;;;11.90;95.80;;;;;;5008367;28;20023;-79
2021/09/28 01:06:05;;;;;;;9.20;2.45;;;11.90;95.90;;;;;;4993832;28;20053;-79
2021/09/28 01:08:31;;;;;;;7.95;2.28;;;11.80;95.80;;;;;;5020058;28;20108;-79
2021/09/28 01:10:57;;;;;;;6.35;1.75;;;11.80;95.90;;;;;;5012208;28;20473;-79
2021/09/28 01:13:24;;;;;;;11.35;2.63;;;11.80;95.90;;;;;;5012202;28;20041;-79
2021/09/28 01:15:59;;;;;;;7.68;2.53;;;11.80;95.90;;;;;;5008215;28;20035;-79
2021/09/28 01:18:28;;;;;;;8.90;2.00;;;11.80;95.90;;;;;;4996521;28;20031;-79
2021/09/28 01:20:55;;;;;;;5.28;1.77;;;11.80;95.90;;;;;;4997671;28;20112;-79
2021/09/28 01:23:20;;;;;;;10.13;1.80;;;11.80;96.00;;;;;;4997702;28;20124;-79
2021/09/28 01:25:46;;;;;;;10.35;2.20;;;11.80;96.00;;;;;;4996751;28;20474;-79
2021/09/28 01:28:12;;;;;;;8.45;2.15;;;11.80;96.10;;;;;;4997846;28;20363;-79
2021/09/28 01:30:38;;;;;;;9.02;2.53;;;11.80;96.10;;;;;;5012670;28;20041;-79
2021/09/28 01:33:04;;;;;;;9.35;3.20;;;11.80;96.10;;;;;;4997721;28;20026;-79
2021/09/28 01:35:29;;;;;;;11.00;2.97;;;11.70;96.10;;;;;;4996623;28;20027;-79
2021/09/28 01:37:56;;;;;;;10.25;1.92;;;11.70;96.10;;;;;;4997650;28;20034;-79
2021/09/28 01:40:22;;;;;;;9.77;2.22;;;11.70;96.10;;;;;;4996224;28;20482;-79
2021/09/28 01:42:48;;;;;;;11.00;2.67;;;11.70;96.10;;;;;;4997570;28;20041;-79
2021/09/28 01:45:14;;;;;;;10.82;2.28;;;11.70;96.20;;;;;;4997473;28;20042;-79
2021/09/28 01:47:40;;;;;;;9.65;2.00;;;11.70;96.20;;;;;;4997255;28;20060;-79
2021/09/28 01:50:07;;;;;;;10.00;2.08;;;11.70;96.20;;;;;;5012602;28;20066;-79
2021/09/28 01:52:34;;;;;;;13.95;2.47;;;11.70;96.20;;;;;;4997259;28;20038;-79
2021/09/28 01:55:00;;;;;;;12.82;2.70;;;11.70;96.20;;;;;;4995806;28;20037;-79
2021/09/28 01:57:26;;;;;;;10.32;2.05;;;11.70;96.20;;;;;;4997131;28;20034;-79
2021/09/28 01:59:51;;;;;;;7.85;2.00;;;11.60;96.20;;;;;;5012131;28;20045;-79
2021/09/28 02:02:17;;;;;;;7.80;1.95;;;11.60;96.20;;;;;;5012166;28;20043;-79
2021/09/28 02:04:43;;;;;;;12.77;2.75;;;11.70;96.30;;;;;;5012183;28;20030;-79
2021/09/28 02:07:08;;;;;;;11.18;2.22;;;11.60;96.20;;;;;;5012389;28;20398;-79
2021/09/28 02:09:34;;;;;;;10.32;2.47;;;11.60;96.30;;;;;;5012337;28;20581;-79
2021/09/28 02:11:59;;;;;;;16.10;2.50;;;11.50;96.20;;;;;;4995652;28;20027;-79
2021/09/28 02:14:28;;;;;;;8.82;2.42;;;11.50;96.20;;;;;;5012074;28;20477;-74
2021/09/28 02:16:55;;;;;;;14.50;2.40;;;11.50;96.20;;;;;;5012052;28;20038;-74
2021/09/28 02:19:21;;;;;;;10.52;2.10;;;11.40;96.20;;;;;;4996890;28;20026;-74
2021/09/28 02:21:47;;;;;;;11.40;2.20;;;11.40;96.20;;;;;;5011905;28;20037;-73
2021/09/28 02:24:13;;;;;;;10.30;1.93;;;11.40;96.20;;;;;;4995444;28;20113;-74
2021/09/28 02:26:38;;;;;;;21.58;2.63;;;11.40;96.30;;;;;;5004167;28;20093;-74
2021/09/28 02:29:05;;;;;;;14.90;2.83;;;11.30;96.30;;;;;;5011837;28;20042;-73
2021/09/28 02:31:30;;;;;;;12.07;2.10;;;11.30;96.30;;;;;;4996461;28;20058;-74
2021/09/28 02:33:56;;;;;;;11.73;2.58;;;11.30;96.30;;;;;;5011588;28;20034;-74
2021/09/28 02:36:22;;;;;;;13.05;2.90;;;11.30;96.30;;;;;;5012025;28;20034;-74
2021/09/28 02:38:49;;;;;;;10.00;1.98;;;11.30;96.40;;;;;;4996564;28;20046;-74
2021/09/28 02:41:15;;;;;;;9.88;2.45;;;11.20;96.30;;;;;;4996395;28;20031;-73
2021/09/28 02:43:40;;;;;;;16.55;1.90;;;11.20;96.40;;;;;;5007376;28;20034;-74
2021/09/28 02:46:06;;;;;;;11.55;3.22;;;11.20;96.40;;;;;;5014836;28;20390;-74
2021/09/28 02:48:32;;;;;;;9.05;2.35;;;11.20;96.50;;;;;;5014663;28;20121;-73
2021/09/28 02:50:58;;;;;;;9.00;2.53;;;11.20;96.50;;;;;;5016069;28;20218;-73
2021/09/28 02:53:24;;;;;;;9.30;2.00;;;11.20;96.50;;;;;;5015877;28;20034;-73
2021/09/28 02:55:50;;;;;;;14.40;2.47;;;11.20;96.50;;;;;;4998267;28;20041;-73
2021/09/28 02:58:15;;;;;;;11.80;2.42;;;11.20;96.50;;;;;;5015875;28;20111;-73
2021/09/28 03:00:41;;;;;;;6.63;1.90;;;11.20;96.50;;;;;;5014386;28;20376;-74
2021/09/28 03:03:06;;;;;;;9.60;1.60;;;11.10;96.60;;;;;;4998218;28;20451;-74
2021/09/28 03:05:32;;;;;;;18.57;2.40;;;11.10;96.60;;;;;;5015831;28;20038;-73
2021/09/28 03:07:58;;;;;;;13.87;2.37;;;11.10;96.60;;;;;;5014325;28;20041;-73
2021/09/28 03:10:23;;;;;;;14.43;2.60;;;11.10;96.60;;;;;;5014537;28;20034;-74
2021/09/28 03:12:49;;;;;;;9.73;2.40;;;11.10;96.60;;;;;;5014409;28;20062;-74
2021/09/28 03:15:15;;;;;;;11.40;2.17;;;11.10;96.60;;;;;;4997799;28;20037;-74
2021/09/28 03:17:41;;;;;;;13.80;2.47;;;11.10;96.60;;;;;;5015521;28;20025;-74
2021/09/28 03:20:07;;;;;;;14.43;2.47;;;11.10;96.90;;;;;;5014251;28;20387;-74
2021/09/28 03:22:33;;;;;;;12.50;2.22;;;11.10;96.70;;;;;;5014169;28;20125;-74
2021/09/28 03:24:58;;;;;;;13.63;2.57;;;11.10;96.70;;;;;;5014220;28;20492;-73
2021/09/28 03:27:24;;;;;;;13.20;2.63;;;11.10;96.70;;;;;;4997549;28;20121;-74
2021/09/28 03:29:50;;;;;;;12.05;2.30;;;11.10;96.70;;;;;;5014348;28;20381;-73
2021/09/28 03:32:15;;;;;;;8.90;1.97;;;11.10;96.70;;;;;;4997824;28;20030;-73
2021/09/28 03:34:41;;;;;;;8.40;2.13;;;11.00;96.70;;;;;;5013697;28;20172;-74
2021/09/28 03:37:07;;;;;;;9.57;2.20;;;11.00;96.70;;;;;;4997854;28;20041;-74
2021/09/28 03:39:32;;;;;;;13.53;2.13;;;11.00;96.70;;;;;;4997008;28;20026;-74
2021/09/28 03:41:59;;;;;;;10.83;2.60;;;11.00;96.80;;;;;;5013529;28;20049;-74
2021/09/28 03:44:25;;;;;;;6.57;1.80;;;11.00;96.80;;;;;;5013552;28;20022;-74
2021/09/28 03:46:50;;;;;;;12.20;2.30;;;11.00;96.80;;;;;;5014996;28;20354;-74
2021/09/28 03:49:16;;;;;;;8.03;2.30;;;11.00;96.80;;;;;;5013903;28;20041;-73
2021/09/28 03:51:42;;;;;;;9.87;2.20;;;11.00;96.80;;;;;;5013859;28;20073;-74
2021/09/28 03:54:07;;;;;;;12.47;1.93;;;11.00;96.90;;;;;;5015044;28;20037;-74
2021/09/28 03:56:33;;;;;;;9.43;2.43;;;10.90;96.80;;;;;;5013770;28;20034;-74
2021/09/28 03:58:58;;;;;;;10.30;2.13;;;10.90;97.10;;;;;;4997167;28;20034;-74
2021/09/28 04:01:24;;;;;;;7.23;1.53;;;10.90;96.80;;;;;;5013439;28;20038;-74
2021/09/28 04:03:50;;;;;;;12.27;2.23;;;10.80;96.80;;;;;;4997130;28;20025;-73
2021/09/28 04:06:15;;;;;;;7.47;1.50;;;10.90;96.90;;;;;;4996837;28;20025;-74
2021/09/28 04:08:41;;;;;;;9.50;1.73;;;10.90;96.90;;;;;;5013302;28;20030;-74
2021/09/28 04:11:07;;;;;;;12.57;1.87;;;10.90;96.90;;;;;;5014591;28;20030;-74
2021/09/28 04:13:33;;;;;;;21.83;2.67;;;10.80;96.80;;;;;;4996552;28;20474;-74
2021/09/28 04:16:00;;;;;;;11.60;1.50;;;10.80;96.90;;;;;;5013366;28;20040;-73
2021/09/28 04:18:26;;;;;;;14.20;2.20;;;10.80;96.90;;;;;;5013060;28;20034;-74
2021/09/28 04:20:52;;;;;;;8.43;2.17;;;10.80;96.90;;;;;;5013968;28;20053;-74
2021/09/28 04:23:19;;;;;;;11.60;1.70;;;10.80;96.90;;;;;;5013585;28;20053;-74
2021/09/28 04:25:45;;;;;;;10.40;2.10;;;10.80;96.90;;;;;;5012762;28;20451;-73
2021/09/28 04:28:13;;;;;;;11.13;2.30;;;10.80;96.90;;;;;;5012830;28;20410;-73
2021/09/28 04:30:39;;;;;;;8.57;1.97;;;10.70;96.90;;;;;;5013080;28;20363;-73
2021/09/28 04:33:05;;;;;;;13.53;2.13;;;10.80;96.90;;;;;;5012730;28;20041;-74
2021/09/28 04:35:30;;;;;;;12.63;2.20;;;10.80;97.00;;;;;;5012920;28;20034;-74
2021/09/28 04:37:56;;;;;;;19.40;2.10;;;10.80;97.00;;;;;;4996612;28;20410;-74
2021/09/28 04:40:22;;;;;;;11.83;1.80;;;10.80;97.00;;;;;;5013050;28;20464;-74
2021/09/28 04:42:47;;;;;;;14.27;2.23;;;10.70;97.00;;;;;;5012841;28;20109;-74
2021/09/28 04:45:13;;;;;;;7.30;1.70;;;10.70;97.00;;;;;;5012798;28;20076;-73
2021/09/28 04:47:39;;;;;;;13.60;1.80;;;10.70;97.00;;;;;;5015266;28;20034;-73
2021/09/28 04:50:06;;;;;;;12.80;2.40;;;10.70;97.00;;;;;;5013519;28;20121;-72
2021/09/28 04:52:32;;;;;;;13.00;1.83;;;10.70;97.10;;;;;;5014817;28;20034;-72
2021/09/28 04:54:58;;;;;;;11.17;1.83;;;10.70;97.10;;;;;;5013388;28;20482;-72
2021/09/28 04:57:24;;;;;;;7.50;2.00;;;10.70;97.10;;;;;;5013144;28;20033;-72
2021/09/28 04:59:50;;;;;;;10.63;2.60;;;10.60;97.40;;;;;;5012437;28;20040;-72
2021/09/28 05:02:18;;;;;;;9.07;1.90;;;10.60;97.10;;;;;;4995976;28;20122;-72
2021/09/28 05:04:44;;;;;;;11.83;2.50;;;10.60;97.10;;;;;;5013298;28;20037;-73
2021/09/28 05:07:09;;;;;;;11.23;1.97;;;10.60;97.10;;;;;;4995866;28;20409;-73
2021/09/28 05:09:37;;;;;;;12.77;2.37;;;10.60;97.10;;;;;;4995933;28;20061;-73
2021/09/28 05:12:04;;;;;;;11.93;2.10;;;10.60;97.10;;;;;;5013718;28;20532;-72
2021/09/28 05:14:30;;;;;;;10.90;1.40;;;10.60;97.20;;;;;;5012436;28;20117;-73
2021/09/28 05:16:55;;;;;;;10.10;1.87;;;10.60;97.20;;;;;;5009427;28;20409;-72
2021/09/28 05:19:21;;;;;;;11.63;2.07;;;10.60;97.20;;;;;;5011659;28;20030;-72
2021/09/28 05:21:46;;;;;;;9.53;1.60;;;10.60;97.20;;;;;;4991561;28;20034;-72
2021/09/28 05:24:12;;;;;;;6.93;1.95;;;10.60;97.30;;;;;;5013438;28;20414;-73
2021/09/28 05:26:38;;;;;;;8.50;1.67;;;10.60;97.30;;;;;;4993391;28;20033;-72
2021/09/28 05:29:04;;;;;;;10.17;1.80;;;10.70;97.30;;;;;;5011913;28;20470;-73
2021/09/28 05:31:42;;;;;;;14.70;1.90;;;10.70;97.30;;;;;;5008355;28;20034;-73
2021/09/28 05:34:07;;;;;;;8.97;2.17;;;10.70;97.30;;;;;;4993259;28;20026;-73
2021/09/28 05:36:33;;;;;;;11.53;1.50;;;10.70;97.20;;;;;;5009112;28;20041;-73
2021/09/28 05:38:59;;;;;;;9.73;2.20;;;10.50;97.20;;;;;;4976111;28;20027;-73
2021/09/28 05:41:25;;;;;;;9.43;2.00;;;10.60;97.50;;;;;;4993684;28;20445;-74
2021/09/28 05:43:51;;;;;;;7.30;1.53;;;10.60;97.20;;;;;;4992594;28;20026;-74
2021/09/28 05:46:17;;;;;;;6.57;2.07;;;10.60;97.20;;;;;;5009073;28;20481;-73
2021/09/28 05:48:43;;;;;;;11.40;1.80;;;10.60;97.20;;;;;;5009153;28;20027;-74
2021/09/28 05:51:18;;;;;;;8.70;1.70;;;10.70;97.30;;;;;;4976139;28;20041;-78
2021/09/28 05:53:45;;;;;;;9.80;1.87;;;10.60;97.30;;;;;;4992321;28;20022;-79
2021/09/28 05:56:14;;;;;;;7.57;2.47;;;10.60;97.30;;;;;;5008565;28;20037;-79
2021/09/28 05:58:41;;;;;;;12.15;1.70;;;10.60;97.30;;;;;;5008698;28;20037;-79
2021/09/28 06:01:16;;;;;;;12.03;1.87;;;10.60;97.30;;;;;;5013661;28;20030;-79
2021/09/28 06:03:42;;;;;;;13.33;2.30;;;10.60;97.30;;;;;;4995885;28;20052;-79
2021/09/28 06:06:07;;;;;;;9.37;1.77;;;10.60;97.30;;;;;;5016443;28;20481;-79
2021/09/28 06:08:34;;;;;;;8.10;2.00;;;10.60;97.30;;;;;;5016152;28;20044;-79
2021/09/28 06:11:00;;;;;;;8.70;1.90;;;10.70;97.30;;;;;;5030095;28;20553;-78
2021/09/28 06:13:26;;;;;;;9.23;1.57;;;10.60;97.30;;;;;;5014842;28;20029;-79
2021/09/28 06:15:51;;;;;;;10.67;1.93;;;10.70;97.40;;;;;;5014597;28;20557;-79
2021/09/28 06:18:17;;;;;;;7.33;1.57;;;10.70;97.40;;;;;;5015020;28;20041;-79
2021/09/28 06:20:43;;;;;;;14.10;2.10;;;10.70;97.40;;;;;;4998390;28;20053;-79
2021/09/28 06:23:08;;;;;;;8.17;1.97;;;10.70;97.40;;;;;;5014807;28;20069;-79
2021/09/28 06:25:34;;;;;;;10.37;2.20;;;10.70;97.40;;;;;;4998374;28;20060;-80
2021/09/28 06:27:59;;;;;;;10.37;1.63;;;10.80;97.50;;;;;;5014862;28;20018;-79
2021/09/28 06:30:25;;;;;;;9.47;2.17;;;10.80;97.50;;;;;;5015151;28;20030;-79
2021/09/28 06:32:51;;;;;;;11.30;2.50;;;10.80;97.50;;;;;;5014642;28;20029;-79
2021/09/28 06:35:17;;;;;;;9.50;1.80;;;10.80;97.50;;;;;;4996648;28;20033;-78
2021/09/28 06:37:43;;;;;;;6.00;1.87;;;10.80;97.50;;;;;;5014760;28;20022;-79
2021/09/28 06:40:09;;;;;;;9.07;2.10;;;10.90;97.60;;;;;;5014722;28;20041;-79
2021/09/28 06:42:35;;;;;;;10.07;1.73;;;10.90;97.50;;;;;;5014697;28;20034;-79
2021/09/28 06:45:00;;;;;;;6.33;1.43;;;10.90;97.60;;;;;;5014617;28;20520;-79
2021/09/28 06:47:26;;;;;;;18.45;2.92;;;10.90;97.60;;;;;;4998272;28;20021;-78
2021/09/28 06:49:52;;;;;;;8.73;1.73;;;10.90;97.60;;;;;;4998214;28;20564;-78
2021/09/28 06:52:17;;;;;;;9.40;1.92;;;11.00;97.60;;;;;;5014587;28;20036;-78
2021/09/28 06:54:43;;;;;;;9.87;2.30;;;11.00;97.60;;;;;;4998270;28;20026;-78
2021/09/28 06:57:08;;;;;;;10.43;2.17;;;11.10;97.60;;;;;;5016111;28;20481;-78
2021/09/28 06:59:34;;;;;;;8.05;1.60;;;11.10;97.60;;;;;;4998663;28;20488;-78
2021/09/28 07:02:00;;;;;;;16.98;2.08;;;11.10;97.60;;;;;;4997998;28;20462;-78
2021/09/28 07:04:25;;;;;;;11.90;1.67;;;11.20;97.50;;;;;;5015364;28;20110;-80
2021/09/28 07:06:51;;;;;;;12.60;2.55;;;11.20;97.50;;;;;;5015725;28;20022;-77
2021/09/28 07:09:16;;;;;;;14.93;2.50;;;11.20;97.50;;;;;;5017147;28;20038;-78
2021/09/28 07:11:42;;;;;;;8.23;2.17;;;11.20;97.50;;;;;;5018239;28;20420;-77
2021/09/28 07:14:08;;;;;;;10.95;1.92;;;11.30;97.50;;;;;;5001538;28;20040;-77
2021/09/28 07:16:33;;;;;;;10.88;2.35;;;11.40;97.50;;;;;;5015846;28;20117;-78
2021/09/28 07:18:59;;;;;;;10.65;2.53;;;11.40;97.50;;;;;;5001065;28;20029;-77
2021/09/28 07:21:25;;;;;;;7.78;1.77;;;11.30;97.40;;;;;;4999773;28;20416;-79
2021/09/28 07:23:50;;;;;;;7.00;2.22;;;11.50;97.50;;;;;;5018073;28;20026;-79
2021/09/28 07:26:16;;;;;;;7.60;2.00;;;11.50;97.50;;;;;;5000360;28;20034;-79
2021/09/28 07:28:42;;;;;;;5.78;1.58;;;11.60;97.50;;;;;;5032963;28;20478;-79
2021/09/28 07:31:08;;;;;;;14.27;2.15;;;11.50;97.70;;;;;;5000393;28;20034;-78
2021/09/28 07:33:34;;;;;;;8.75;2.45;;;11.70;97.30;;;;;;5016664;28;20034;-77
2021/09/28 07:36:02;;;;;;;10.48;2.95;;;11.70;97.30;;;;;;5015248;28;20417;-78
2021/09/28 07:38:27;;;;;;;9.85;2.10;;;11.70;97.30;;;;;;5014091;28;20494;-79
2021/09/28 07:40:54;;;;;;;12.15;2.38;;;11.80;97.20;;;;;;5015126;28;20034;-76
2021/09/28 07:43:20;;;;;;;7.45;2.55;;;11.80;97.40;;;;;;5015646;28;20038;-79
2021/09/28 07:45:46;;;;;;;6.22;1.90;;;11.90;97.10;;;;;;5015521;28;20541;-79
2021/09/28 07:48:12;;;;;;;7.90;2.45;;;12.00;97.10;;;;;;5013778;28;20358;-79
2021/09/28 07:50:38;;;;;;;10.93;2.38;;;12.00;97.00;;;;;;4997610;28;20033;-79
2021/09/28 07:53:06;;;;;;;10.95;2.00;;;12.10;97.00;;;;;;5013701;28;20413;-78
2021/09/28 07:55:33;;;;;;;13.55;2.20;;;12.10;96.90;;;;;;5013761;28;20393;-79
2021/09/28 07:57:58;;;;;;;11.02;2.00;;;12.20;96.90;;;;;;5013440;28;20033;-79
2021/09/28 08:00:24;;;;;;;7.45;2.38;;;12.20;96.90;;;;;;5013631;28;20108;-79
2021/09/28 08:02:50;;;;;;;11.93;2.70;;;12.30;96.90;;;;;;5013364;28;20034;-79
2021/09/28 08:05:16;;;;;;;6.80;2.05;;;12.40;96.90;;;;;;4996910;28;20038;-79
2021/09/28 08:07:41;;;;;;;11.35;1.95;;;12.50;96.80;;;;;;5013123;28;20030;-78
2021/09/28 08:10:09;;;;;;;13.48;2.75;;;12.50;96.70;;;;;;5013191;28;20497;-79
2021/09/28 08:12:35;;;;;;;9.10;2.03;;;12.60;96.60;;;;;;5012955;28;20084;-79
2021/09/28 08:15:01;;;;;;;8.02;2.50;;;12.70;96.60;;;;;;5013110;28;20500;-79
2021/09/28 08:17:27;;;;;;;11.57;2.75;;;12.70;96.40;;;;;;4996595;28;20120;-79
2021/09/28 08:19:54;;;;;;;9.00;2.28;;;12.80;96.40;;;;;;4996463;28;20535;-79
2021/09/28 08:22:20;;;;;;;11.30;2.53;;;12.90;96.40;;;;;;5013270;28;20029;-79
2021/09/28 08:24:48;;;;;;;10.90;2.10;;;12.90;96.40;;;;;;4996685;28;20030;-79
2021/09/28 08:30:00;;;;;;;12.85;2.70;;;13.00;96.10;;;;;;5014471;28;20520;-79
2021/09/28 08:32:27;;;;;;;9.50;2.17;;;13.10;95.90;;;;;;5014135;28;20385;-79
2021/09/28 08:34:52;;;;;;;10.95;3.10;;;13.30;96.00;;;;;;5029205;28;20109;-79
2021/09/28 08:37:18;;;;;;;10.50;2.70;;;13.30;95.90;;;;;;5014017;28;20450;-79
2021/09/28 08:39:45;;;;;;;9.02;2.10;;;13.30;95.60;;;;;;5013847;28;20034;-79
2021/09/28 08:42:11;;;;;;;10.25;2.38;;;13.40;95.40;;;;;;4996327;28;20041;-78
2021/09/28 08:44:38;;;;;;;8.07;1.83;;;13.50;95.50;;;;;;5012664;28;20443;-78
2021/09/28 08:47:03;;;;;;;12.25;2.08;;;13.60;95.60;;;;;;5012502;28;20477;-79
2021/09/28 08:49:29;;;;;;;11.05;2.47;;;13.70;95.60;;;;;;5012807;28;20049;-77
2021/09/28 08:51:55;;;;;;;10.38;2.13;;;13.80;95.40;;;;;;5012869;28;20033;-79
2021/09/28 08:54:21;;;;;;;10.10;1.85;;;13.90;95.30;;;;;;5012400;28;20033;-79
2021/09/28 08:56:47;;;;;;;11.70;2.28;;;13.90;95.10;;;;;;5013810;28;20084;-79
2021/09/28 08:59:18;;;;;;;6.40;1.58;;;14.00;95.10;;;;;;5028753;28;20030;-78
2021/09/28 09:02:08;;;;;;;9.65;2.38;;;14.10;95.10;;;;;;5012311;28;20022;-78
2021/09/28 09:04:35;;;;;;;10.27;1.90;;;14.20;95.10;;;;;;5012608;28;20048;-79
2021/09/28 09:07:20;;;;;;;9.75;2.17;;;14.20;94.90;;;;;;5012499;28;20026;-79
2021/09/28 09:09:47;;;;;;;7.88;1.98;;;14.40;94.90;;;;;;5013643;28;20055;-78
2021/09/28 09:12:13;;;;;;;9.68;2.03;;;14.50;94.90;;;;;;5013533;28;20486;-79
2021/09/28 09:14:40;;;;;;;12.70;2.20;;;14.60;94.60;;;;;;5012474;28;20044;-79
2021/09/28 09:17:06;;;;;;;8.23;2.20;;;14.70;94.40;;;;;;5013785;28;20037;-79
2021/09/28 09:19:32;;;;;;;11.02;2.20;;;14.80;94.40;;;;;;5012216;28;20045;-80
2021/09/28 09:21:59;;;;;;;9.57;1.58;;;14.90;94.40;;;;;;4996037;28;20037;-79
2021/09/28 09:24:49;;;;;;;6.97;1.58;;;15.00;94.20;;;;;;5012307;28;20117;-79
2021/09/28 09:27:27;;;;;;;9.77;1.60;;;15.10;94.10;;;;;;5013379;28;20022;-79
2021/09/28 09:30:22;;;;;;;8.30;2.13;;;15.20;94.00;;;;;;5012134;28;20025;-79
2021/09/28 09:32:55;;;;;;;10.93;2.17;;;15.30;93.80;;;;;;5013457;28;20490;-79
2021/09/28 09:35:31;;;;;;;6.75;1.48;;;15.40;93.40;;;;;;5013858;28;20026;-77
2021/09/28 09:38:18;;;;;;;8.45;1.67;;;15.50;93.10;;;;;;5013571;28;20026;-78
2021/09/28 09:40:46;;;;;;;20.83;2.58;;;15.60;92.80;;;;;;5017290;28;20113;-79
2021/09/28 09:43:13;;;;;;;11.40;2.10;;;15.70;92.60;;;;;;5017775;28;20076;-78
2021/09/28 09:45:39;;;;;;;14.65;1.77;;;15.80;92.60;;;;;;5016542;28;20053;-79
2021/09/28 09:48:29;;;;;;;7.97;1.67;;;15.90;92.40;;;;;;5015837;28;20049;-79
2021/09/28 09:51:07;;;;;;;9.10;1.40;;;16.20;92.40;;;;;;5015901;28;20071;-78
2021/09/28 09:53:49;;;;;;;8.25;1.60;;;16.40;91.70;;;;;;5017255;28;20022;-79
2021/09/28 09:56:16;;;;;;;9.43;1.40;;;16.80;91.50;;;;;;5017047;28;20030;-78
2021/09/28 09:58:41;;;;;;;10.63;1.65;;;17.10;91.40;;;;;;4998673;28;20029;-80
2021/09/28 10:01:08;;;;;;;9.90;1.58;;;17.50;91.50;;;;;;5015600;28;20331;-79
2021/09/28 10:03:38;;;;;;;10.20;1.85;;;18.00;91.60;;;;;;4999484;28;20045;-79
2021/09/28 10:06:05;;;;;;;10.65;1.40;;;18.50;91.40;;;;;;5016790;28;20052;-78
2021/09/28 10:08:32;;;;;;;6.82;1.35;;;19.20;91.10;;;;;;5032110;28;20058;-79
2021/09/28 10:10:58;;;;;;;6.03;1.70;;;19.80;90.60;;;;;;5017133;28;20079;-80
2021/09/28 10:13:57;;;;;;;6.30;1.15;;;20.40;89.50;;;;;;5031702;28;20524;-80
2021/09/28 10:16:28;;;;;;;6.03;1.23;;;21.00;85.20;;;;;;5032132;28;20022;-79
2021/09/28 10:18:54;;;;;;;8.63;1.65;;;21.60;83.70;;;;;;5031796;28;20026;-79
2021/09/28 10:21:39;;;;;;;5.85;1.52;;;22.10;82.80;;;;;;5015228;28;20057;-78
2021/09/28 10:24:33;;;;;;;7.47;1.42;;;22.80;79.60;;;;;;5015440;28;20030;-81
2021/09/28 10:26:59;;;;;;;4.15;1.08;;;23.50;76.20;;;;;;5015073;28;20041;-80
2021/09/28 10:29:38;;;;;;;6.45;1.38;;;24.00;74.30;;;;;;5032068;28;20462;-81
2021/09/28 10:32:22;;;;;;;8.68;1.50;;;24.40;70.60;;;;;;5016553;28;20088;-81
2021/09/28 10:35:07;;;;;;;12.48;1.23;;;24.80;68.10;;;;;;5031508;28;20155;-80
2021/09/28 10:37:41;;;;;;;6.97;1.50;;;25.30;66.30;;;;;;5016057;28;20083;-79
2021/09/28 10:40:08;;;;;;;7.85;1.80;;;25.70;64.50;;;;;;5016262;28;20044;-79
2021/09/28 10:42:52;;;;;;;7.32;1.45;;;26.10;64.20;;;;;;5015786;28;20026;-80
2021/09/28 10:45:18;;;;;;;6.05;1.20;;;26.60;60.90;;;;;;5031401;28;20241;-82
2021/09/28 10:48:07;;;;;;;6.75;1.52;;;26.80;61.00;;;;;;5016201;28;20060;-79
2021/09/28 10:50:40;;;;;;;7.20;1.33;;;27.10;58.30;;;;;;5016312;28;20037;-80
2021/09/28 10:53:19;;;;;;;7.75;1.05;;;27.40;58.60;;;;;;5014753;28;20022;-80
2021/09/28 10:56:00;;;;;;;6.05;1.42;;;27.80;58.40;;;;;;5016047;28;20061;-80
2021/09/28 10:58:27;;;;;;;7.78;1.52;;;28.20;55.60;;;;;;5014393;28;20028;-80
2021/09/28 11:00:56;;;;;;;10.18;1.42;;;28.50;56.30;;;;;;5015744;28;20427;-81
2021/09/28 11:03:41;;;;;;;7.68;1.48;;;28.90;54.60;;;;;;5015772;28;20033;-80
2021/09/28 11:06:08;;;;;;;9.10;1.13;;;28.90;51.80;;;;;;5031258;28;20552;-79
2021/09/28 11:08:37;;;;;;;8.25;1.40;;;29.10;52.00;;;;;;5031356;28;20061;-79
2021/09/28 11:11:05;;;;;;;7.38;1.20;;;29.10;50.40;;;;;;5014894;28;20014;-80
2021/09/28 11:13:34;;;;;;;6.15;1.33;;;29.20;49.60;;;;;;5014126;28;20083;-78
2021/09/28 11:16:02;;;;;;;5.93;1.00;;;29.30;49.80;;;;;;5015626;28;20462;-79
2021/09/28 11:18:28;;;;;;;8.60;1.52;;;29.60;49.20;;;;;;5014645;28;20512;-77
2021/09/28 11:21:10;;;;;;;7.25;1.55;;;29.70;48.50;;;;;;5015121;28;20054;-77
2021/09/28 11:23:37;;;;;;;6.65;1.73;;;30.00;46.80;;;;;;5013982;28;20382;-78
2021/09/28 11:26:04;;;;;;;6.40;1.10;;;30.10;47.00;;;;;;5015336;28;20101;-79
2021/09/28 11:28:29;;;;;;;8.45;1.27;;;30.20;47.00;;;;;;5030581;28;20030;-78
2021/09/28 11:30:57;;;;;;;5.38;1.48;;;30.40;44.90;;;;;;5014342;28;20034;-77
2021/09/28 11:33:24;;;;;;;5.72;1.42;;;30.40;44.50;;;;;;5015149;28;20026;-80
2021/09/28 11:36:02;;;;;;;7.20;1.05;;;30.40;44.30;;;;;;5015101;28;20042;-80
2021/09/28 11:38:36;;;;;;;4.03;0.77;;;30.50;44.10;;;;;;5014191;28;20018;-81
2021/09/28 11:41:05;;;;;;;6.38;1.08;;;30.70;44.70;;;;;;5014889;28;20030;-79
2021/09/28 11:43:33;;;;;;;7.22;1.45;;;30.90;44.50;;;;;;5015200;28;20109;-82
2021/09/28 11:46:02;;;;;;;6.57;1.48;;;31.10;43.80;;;;;;5014303;28;20413;-78
2021/09/28 11:48:35;;;;;;;6.55;1.15;;;31.30;42.90;;;;;;5015409;28;20028;-79
2021/09/28 11:51:23;;;;;;;7.32;1.23;;;31.40;42.50;;;;;;5013775;28;20398;-80
2021/09/28 11:53:51;;;;;;;7.55;1.40;;;31.30;41.70;;;;;;5014038;28;20119;-80
2021/09/28 11:56:20;;;;;;;13.00;1.50;;;30.80;41.40;;;;;;5014905;28;20466;-80
2021/09/28 11:58:47;;;;;;;5.32;1.00;;;30.40;41.50;;;;;;4997408;28;20505;-79
2021/09/28 12:01:15;;;;;;;7.30;1.10;;;29.90;41.90;;;;;;5014043;28;20022;-79
2021/09/28 12:09:35;;;;;;;5.30;0.98;;;29.70;42.70;;;;;;5014661;28;20026;-79
2021/09/28 12:12:08;;;;;;;7.82;1.10;;;30.00;43.00;;;;;;5014520;28;20111;-79
2021/09/28 12:14:36;;;;;;;;;;;30.60;42.60;;;;;;5015094;28;20022;-79
2021/09/28 12:17:16;;;;;;;6.28;0.93;;;30.90;41.40;;;;;;5014571;28;20365;-79
2021/09/28 12:19:47;;;;;;;6.95;1.38;;;31.30;40.90;;;;;;5029682;28;20049;-80
2021/09/28 12:22:13;;;;;;;7.93;1.02;;;31.30;40.70;;;;;;5014375;28;20022;-79
2021/09/28 12:24:50;;;;;;;6.57;1.30;;;31.30;40.80;;;;;;5012957;28;20030;-80
2021/09/28 12:27:16;;;;;;;8.07;1.10;;;31.10;40.20;;;;;;5014384;28;20026;-80
2021/09/28 12:29:45;;;;;;;6.72;1.65;;;30.80;40.00;;;;;;5013002;28;20033;-77
2021/09/28 12:32:22;;;;;;;6.70;0.98;;;30.30;40.40;;;;;;5014412;28;20038;-79
2021/09/28 12:35:01;;;;;;;9.27;1.25;;;30.40;41.00;;;;;;5012987;28;20041;-79
2021/09/28 12:37:29;;;;;;;5.75;0.90;;;30.50;41.20;;;;;;5012821;28;20485;-78
2021/09/28 12:40:08;;;;;;;5.82;1.00;;;30.70;40.80;;;;;;4996596;28;20089;-78
2021/09/28 12:42:36;;;;;;;6.88;0.95;;;30.50;40.00;;;;;;5013750;28;20033;-77
2021/09/28 12:45:08;;;;;;;6.18;1.00;;;30.10;39.70;;;;;;5013821;28;20374;-80
2021/09/28 12:47:37;;;;;;;5.10;1.00;;;29.90;40.60;;;;;;5013871;28;20072;-81
2021/09/28 12:50:27;;;;;;;8.10;0.90;;;30.00;41.00;;;;;;5012662;28;20029;-81
2021/09/28 12:53:04;;;;;;;5.55;0.82;;;30.20;40.70;;;;;;5013338;28;20389;-80
2021/09/28 12:55:36;;;;;;;6.95;0.90;;;30.10;40.70;;;;;;5013604;28;20030;-80